createdAt,value
2023-02-18T00:00:57.812Z,9.70
2023-02-18T00:03:26.567Z,9.80
2023-02-18T00:05:53.714Z,9.80
2023-02-18T00:08:21.451Z,9.80
2023-02-18T00:10:48.441Z,9.80
2023-02-18T00:13:15.392Z,9.90
2023-02-18T00:15:42.109Z,9.90
2023-02-18T00:18:08.956Z,9.90
2023-02-18T00:20:36.410Z,9.90
2023-02-18T00:23:03.678Z,9.90
2023-02-18T00:25:30.477Z,10.00
2023-02-18T00:27:57.290Z,10.00
2023-02-18T00:30:24.478Z,9.90
2023-02-18T00:32:51.334Z,10.00
2023-02-18T00:35:18.139Z,10.00
2023-02-18T00:37:44.905Z,10.00
2023-02-18T00:40:12.047Z,10.00
2023-02-18T00:42:38.927Z,9.90
2023-02-18T00:45:06.026Z,10.00
2023-02-18T00:47:32.805Z,10.00
2023-02-18T00:49:59.582Z,10.00
2023-02-18T00:52:26.362Z,10.00
2023-02-18T00:54:53.082Z,10.00
2023-02-18T00:57:19.924Z,10.00
2023-02-18T00:59:46.691Z,10.00
2023-02-18T01:02:13.463Z,10.00
2023-02-18T01:04:40.340Z,10.10
2023-02-18T01:07:07.187Z,10.10
2023-02-18T01:09:33.954Z,10.00
2023-02-18T01:12:00.781Z,10.10
2023-02-18T01:14:27.592Z,10.10
2023-02-18T01:16:54.352Z,10.10
2023-02-18T01:19:21.097Z,10.00
2023-02-18T01:21:47.933Z,10.10
2023-02-18T01:24:14.697Z,10.10
2023-02-18T01:26:41.502Z,10.10
2023-02-18T01:29:08.271Z,10.10
2023-02-18T01:31:35.182Z,10.10
2023-02-18T01:34:01.958Z,10.10
2023-02-18T01:36:28.723Z,10.10
2023-02-18T01:38:55.562Z,10.20
2023-02-18T01:41:22.403Z,10.20
2023-02-18T01:43:49.192Z,10.20
2023-02-18T01:46:19.347Z,10.20
2023-02-18T01:48:54.552Z,10.20
2023-02-18T01:51:35.839Z,10.20
2023-02-18T01:54:15.180Z,10.20
2023-02-18T01:56:51.282Z,10.20
2023-02-18T01:59:23.209Z,10.10
2023-02-18T02:01:50.177Z,10.10
2023-02-18T02:04:17.122Z,10.00
2023-02-18T02:06:43.966Z,10.00
2023-02-18T02:09:13.865Z,10.00
2023-02-18T02:12:02.342Z,9.90
2023-02-18T02:14:44.028Z,10.00
2023-02-18T02:17:35.847Z,9.90
2023-02-18T02:20:38.733Z,9.90
2023-02-18T02:23:26.661Z,9.90
2023-02-18T02:26:35.189Z,9.80
2023-02-18T02:29:20.419Z,9.90
2023-02-18T02:32:34.480Z,9.90
2023-02-18T02:35:13.041Z,9.80
2023-02-18T02:37:48.854Z,9.80
2023-02-18T02:40:38.370Z,9.70
2023-02-18T02:43:16.790Z,9.70
2023-02-18T02:45:56.743Z,9.70
2023-02-18T02:48:42.703Z,9.70
2023-02-18T02:51:34.540Z,9.70
2023-02-18T02:54:23.542Z,9.60
2023-02-18T02:56:51.095Z,9.70
2023-02-18T02:59:24.748Z,9.60
2023-02-18T03:02:21.733Z,9.60
2023-02-18T03:05:07.402Z,9.60
2023-02-18T03:07:49.103Z,9.60
2023-02-18T03:10:27.917Z,9.60
2023-02-18T03:13:00.856Z,9.50
2023-02-18T03:15:49.076Z,9.50
2023-02-18T03:18:34.746Z,9.40
2023-02-18T03:21:12.234Z,9.30
2023-02-18T03:23:46.635Z,9.30
2023-02-18T03:26:16.428Z,9.20
2023-02-18T03:28:45.562Z,9.10
2023-02-18T03:31:21.975Z,9.10
2023-02-18T03:34:03.534Z,9.10
2023-02-18T03:36:32.431Z,9.10
2023-02-18T03:39:13.842Z,9.10
2023-02-18T03:41:41.365Z,9.10
2023-02-18T03:44:10.054Z,9.10
2023-02-18T03:46:39.755Z,9.20
2023-02-18T03:49:06.818Z,9.20
2023-02-18T03:51:33.679Z,9.10
2023-02-18T03:54:00.444Z,9.10
2023-02-18T03:56:27.318Z,9.10
2023-02-18T03:58:54.117Z,9.10
2023-02-18T04:01:21.331Z,9.10
2023-02-18T04:03:48.136Z,9.10
2023-02-18T04:06:14.956Z,9.20
2023-02-18T04:08:41.899Z,9.20
2023-02-18T04:11:08.615Z,9.30
2023-02-18T04:13:35.319Z,9.30
2023-02-18T04:16:02.082Z,9.30
2023-02-18T04:18:28.785Z,9.30
2023-02-18T04:20:55.487Z,9.30
2023-02-18T04:23:22.274Z,9.40
2023-02-18T04:25:49.446Z,9.40
2023-02-18T04:28:17.366Z,9.40
2023-02-18T04:30:45.282Z,9.50
2023-02-18T04:33:12.502Z,9.40
2023-02-18T04:35:42.078Z,9.40
2023-02-18T04:38:10.770Z,9.50
2023-02-18T04:40:37.650Z,9.50
2023-02-18T04:43:04.645Z,9.50
2023-02-18T04:45:31.462Z,9.50
2023-02-18T04:47:58.419Z,9.50
2023-02-18T04:50:25.226Z,9.50
2023-02-18T04:52:52.066Z,9.50
2023-02-18T04:55:18.935Z,9.60
2023-02-18T04:57:45.693Z,9.60
2023-02-18T05:00:17.165Z,9.50
2023-02-18T05:02:44.958Z,9.50
2023-02-18T05:05:12.896Z,9.50
2023-02-18T05:07:40.329Z,9.50
2023-02-18T05:10:07.764Z,9.50
2023-02-18T05:12:34.514Z,9.50
2023-02-18T05:15:01.243Z,9.50
2023-02-18T05:17:28.004Z,9.50
2023-02-18T05:19:54.720Z,9.50
2023-02-18T05:22:21.668Z,9.50
2023-02-18T05:24:48.441Z,9.50
2023-02-18T05:27:15.210Z,9.50
2023-02-18T05:29:41.991Z,9.50
2023-02-18T05:32:08.820Z,9.50
2023-02-18T05:34:35.562Z,9.50
2023-02-18T05:37:02.331Z,9.50
2023-02-18T05:39:29.017Z,9.50
2023-02-18T05:41:55.745Z,9.50
2023-02-18T05:44:31.997Z,9.50
2023-02-18T05:47:04.333Z,9.50
2023-02-18T05:49:32.384Z,9.50
2023-02-18T05:51:59.686Z,9.50
2023-02-18T05:54:27.019Z,9.50
2023-02-18T05:56:54.534Z,9.50
2023-02-18T05:59:22.177Z,9.50
2023-02-18T06:01:49.003Z,9.50
2023-02-18T06:04:16.386Z,9.50
2023-02-18T06:06:43.398Z,9.50
2023-02-18T06:09:10.134Z,9.50
2023-02-18T06:11:37.261Z,9.40
2023-02-18T06:14:04.345Z,9.30
2023-02-18T06:16:31.502Z,9.30
2023-02-18T06:18:58.320Z,9.30
2023-02-18T06:21:25.092Z,9.30
2023-02-18T06:23:52.180Z,9.20
2023-02-18T06:26:18.988Z,9.20
2023-02-18T06:28:45.778Z,9.30
2023-02-18T06:31:12.773Z,9.20
2023-02-18T06:33:39.578Z,9.30
2023-02-18T06:36:09.339Z,9.20
2023-02-18T06:38:36.655Z,9.20
2023-02-18T06:41:03.885Z,9.30
2023-02-18T06:43:30.638Z,9.30
2023-02-18T06:45:57.584Z,9.30
2023-02-18T06:48:24.657Z,9.40
2023-02-18T06:50:51.621Z,9.40
2023-02-18T06:53:18.476Z,9.50
2023-02-18T06:55:45.419Z,9.50
2023-02-18T06:58:13.739Z,9.60
2023-02-18T07:00:40.813Z,9.70
2023-02-18T07:03:08.364Z,9.70
2023-02-18T07:05:35.346Z,9.70
2023-02-18T07:08:02.246Z,9.70
2023-02-18T07:10:29.031Z,9.70
2023-02-18T07:12:55.780Z,9.70
2023-02-18T07:15:24.383Z,9.70
2023-02-18T07:17:52.024Z,9.70
2023-02-18T07:20:19.904Z,9.70
2023-02-18T07:22:47.491Z,9.80
2023-02-18T07:25:14.478Z,9.80
2023-02-18T07:27:41.668Z,9.80
2023-02-18T07:30:09.399Z,9.90
2023-02-18T07:32:36.564Z,9.90
2023-02-18T07:35:05.005Z,10.00
2023-02-18T07:37:32.531Z,10.10
2023-02-18T07:39:59.291Z,10.10
2023-02-18T07:42:26.265Z,10.20
2023-02-18T07:44:52.993Z,10.30
2023-02-18T07:47:19.832Z,10.30
2023-02-18T07:49:47.228Z,10.30
2023-02-18T07:52:15.218Z,10.40
2023-02-18T07:54:42.456Z,10.40
2023-02-18T07:57:09.312Z,10.50
2023-02-18T07:59:36.094Z,10.50
2023-02-18T08:02:03.472Z,10.60
2023-02-18T08:04:30.260Z,10.70
2023-02-18T08:06:57.045Z,10.70
2023-02-18T08:09:23.765Z,10.80
2023-02-18T08:11:50.509Z,10.90
2023-02-18T08:14:17.260Z,10.90
2023-02-18T08:16:44.058Z,11.00
2023-02-18T08:19:10.824Z,11.00
2023-02-18T08:21:37.575Z,11.00
2023-02-18T08:24:04.529Z,11.10
2023-02-18T08:26:31.307Z,11.10
2023-02-18T08:28:58.043Z,11.20
2023-02-18T08:31:27.449Z,11.20
2023-02-18T08:33:55.695Z,11.30
2023-02-18T08:36:22.997Z,11.30
2023-02-18T08:38:49.980Z,11.40
2023-02-18T08:41:18.924Z,11.50
2023-02-18T08:43:46.230Z,11.50
2023-02-18T08:46:16.444Z,11.60
2023-02-18T08:48:52.079Z,11.50
2023-02-18T08:51:21.688Z,11.60
2023-02-18T08:53:49.927Z,11.60
2023-02-18T08:56:17.782Z,11.60
2023-02-18T08:58:44.860Z,11.60
2023-02-18T09:01:13.507Z,11.70
2023-02-18T09:03:40.899Z,11.80
2023-02-18T09:06:08.204Z,11.80
2023-02-18T09:08:35.007Z,11.80
2023-02-18T09:11:04.638Z,11.70
2023-02-18T09:13:33.275Z,11.70
2023-02-18T09:16:06.072Z,11.70
2023-02-18T09:18:35.478Z,11.70
2023-02-18T09:21:02.354Z,11.70
2023-02-18T09:23:30.997Z,11.70
2023-02-18T09:25:58.095Z,11.70
2023-02-18T09:28:25.453Z,11.80
2023-02-18T09:30:52.680Z,12.00
2023-02-18T09:33:19.678Z,12.10
2023-02-18T09:35:47.030Z,12.10
2023-02-18T09:38:16.838Z,12.20
2023-02-18T09:40:51.855Z,12.30
2023-02-18T09:43:44.004Z,12.30
2023-02-18T09:46:26.371Z,12.20
2023-02-18T09:51:21.230Z,12.30
2023-02-18T09:53:48.454Z,12.30
2023-02-18T09:56:32.416Z,12.40
2023-02-18T09:59:02.382Z,12.50
2023-02-18T10:01:35.326Z,12.60
2023-02-18T10:04:18.447Z,12.80
2023-02-18T10:06:50.608Z,12.90
2023-02-18T10:09:21.711Z,13.00
2023-02-18T10:12:11.800Z,13.00
2023-02-18T10:14:38.675Z,13.10
2023-02-18T10:17:07.054Z,13.20
2023-02-18T10:19:38.096Z,13.40
2023-02-18T10:22:06.742Z,13.30
2023-02-18T10:24:55.622Z,13.20
2023-02-18T10:27:31.850Z,13.20
2023-02-18T10:30:24.328Z,13.10
2023-02-18T10:33:00.538Z,13.00
2023-02-18T10:35:37.547Z,13.00
2023-02-18T10:38:26.120Z,12.90
2023-02-18T10:41:03.755Z,12.90
2023-02-18T10:43:48.579Z,12.90
2023-02-18T10:46:18.176Z,12.90
2023-02-18T10:49:10.648Z,13.10
2023-02-18T10:51:42.427Z,13.30
2023-02-18T10:54:09.247Z,13.40
2023-02-18T10:56:48.590Z,13.40
2023-02-18T10:59:24.348Z,13.40
2023-02-18T11:02:03.080Z,13.60
2023-02-18T11:04:41.137Z,13.60
2023-02-18T11:07:23.848Z,13.50
2023-02-18T11:09:54.270Z,13.50
2023-02-18T11:12:25.968Z,13.50
2023-02-18T11:15:18.912Z,13.60
2023-02-18T11:17:49.205Z,13.40
2023-02-18T11:20:34.369Z,13.40
2023-02-18T11:23:06.948Z,13.60
2023-02-18T11:25:41.488Z,13.80
2023-02-18T11:28:28.398Z,13.90
2023-02-18T11:30:58.772Z,13.80
2023-02-18T11:33:38.070Z,13.90
2023-02-18T11:36:13.450Z,13.80
2023-02-18T11:38:50.187Z,14.00
2023-02-18T11:41:21.173Z,14.10
2023-02-18T11:43:53.926Z,14.40
2023-02-18T11:46:24.322Z,14.30
2023-02-18T11:48:52.282Z,14.20
2023-02-18T11:51:28.227Z,14.30
2023-02-18T11:53:59.890Z,14.20
2023-02-18T11:56:30.728Z,14.20
2023-02-18T11:58:58.198Z,14.20
2023-02-18T12:01:43.726Z,14.00
2023-02-18T12:04:35.218Z,13.90
2023-02-18T12:07:05.457Z,13.80
2023-02-18T12:09:38.586Z,13.70
2023-02-18T12:12:14.669Z,13.70
2023-02-18T12:14:41.394Z,13.70
2023-02-18T12:17:59.492Z,13.80
2023-02-18T12:20:41.248Z,13.80
2023-02-18T12:23:40.092Z,13.60
2023-02-18T12:26:30.080Z,13.60
2023-02-18T12:29:27.609Z,13.60
2023-02-18T12:32:05.294Z,13.60
2023-02-18T12:34:57.206Z,13.70
2023-02-18T12:37:55.054Z,13.60
2023-02-18T12:40:33.047Z,13.50
2023-02-18T12:43:20.965Z,13.40
2023-02-18T12:46:05.746Z,13.40
2023-02-18T12:49:15.651Z,13.40
2023-02-18T12:51:42.354Z,13.20
2023-02-18T12:54:33.343Z,13.20
2023-02-18T12:57:21.889Z,13.10
2023-02-18T13:00:22.843Z,13.10
2023-02-18T13:03:22.897Z,13.00
2023-02-18T13:06:09.136Z,13.00
2023-02-18T13:08:45.033Z,13.10
2023-02-18T13:11:40.443Z,13.10
2023-02-18T13:14:18.762Z,13.10
2023-02-18T13:16:49.816Z,13.10
2023-02-18T13:19:21.490Z,13.10
2023-02-18T13:21:55.459Z,13.20
2023-02-18T13:24:38.090Z,13.20
2023-02-18T13:27:41.569Z,13.30
2023-02-18T13:30:19.082Z,13.30
2023-02-18T13:33:20.632Z,13.30
2023-02-18T13:36:03.635Z,13.20
2023-02-18T13:38:34.867Z,13.30
2023-02-18T13:41:02.156Z,13.20
2023-02-18T13:43:30.531Z,13.20
2023-02-18T13:46:19.111Z,13.10
2023-02-18T13:49:05.458Z,13.20
2023-02-18T13:51:46.427Z,13.20
2023-02-18T13:54:13.228Z,13.20
2023-02-18T13:57:10.923Z,13.10
2023-02-18T13:59:40.460Z,13.00
2023-02-18T14:02:26.424Z,13.00
2023-02-18T14:04:57.429Z,13.00
2023-02-18T14:07:39.454Z,13.00
2023-02-18T14:10:18.492Z,13.00
2023-02-18T14:12:57.883Z,12.90
2023-02-18T14:15:24.893Z,12.90
2023-02-18T14:18:20.850Z,12.90
2023-02-18T14:20:51.992Z,12.80
2023-02-18T14:23:18.844Z,12.70
2023-02-18T14:25:53.680Z,12.70
2023-02-18T14:28:45.119Z,12.60
2023-02-18T14:31:12.272Z,12.60
2023-02-18T14:34:17.032Z,12.60
2023-02-18T14:36:59.741Z,12.70
2023-02-18T14:39:44.821Z,12.70
2023-02-18T14:42:20.787Z,12.80
2023-02-18T14:44:56.452Z,12.70
2023-02-18T14:47:29.059Z,12.80
2023-02-18T14:50:00.188Z,12.80
2023-02-18T14:52:32.606Z,12.80
2023-02-18T14:55:02.595Z,12.80
2023-02-18T14:57:45.452Z,12.70
2023-02-18T15:00:24.717Z,12.70
2023-02-18T15:02:54.482Z,12.70
2023-02-18T15:05:24.417Z,12.70
2023-02-18T15:08:01.511Z,12.70
2023-02-18T15:10:42.655Z,12.70
2023-02-18T15:13:24.203Z,12.60
2023-02-18T15:15:57.775Z,12.70
2023-02-18T15:19:05.426Z,12.70
2023-02-18T15:21:39.291Z,12.70
2023-02-18T15:24:19.860Z,12.70
2023-02-18T15:26:51.209Z,12.70
2023-02-18T15:29:29.665Z,12.70
2023-02-18T15:31:58.188Z,12.70
2023-02-18T15:34:32.789Z,12.80
2023-02-18T15:37:01.057Z,12.70
2023-02-18T15:39:28.449Z,12.70
2023-02-18T15:41:57.587Z,12.70
2023-02-18T15:44:28.593Z,12.70
2023-02-18T15:46:55.859Z,12.70
2023-02-18T15:49:24.366Z,12.60
2023-02-18T15:51:55.959Z,12.60
2023-02-18T15:54:23.911Z,12.60
2023-02-18T15:56:54.246Z,12.60
2023-02-18T15:59:33.808Z,12.50
2023-02-18T16:02:18.010Z,12.50
2023-02-18T16:04:51.324Z,12.50
2023-02-18T16:07:31.799Z,12.40
2023-02-18T16:10:19.842Z,12.40
2023-02-18T16:12:51.035Z,12.30
2023-02-18T16:15:28.874Z,12.30
2023-02-18T16:17:58.817Z,12.30
2023-02-18T16:20:36.248Z,12.30
2023-02-18T16:23:12.456Z,12.20
2023-02-18T16:25:39.151Z,12.10
2023-02-18T16:28:13.009Z,12.00
2023-02-18T16:30:41.573Z,12.00
2023-02-18T16:33:08.651Z,11.90
2023-02-18T16:35:49.000Z,11.90
2023-02-18T16:38:24.787Z,11.80
2023-02-18T16:40:53.848Z,11.80
2023-02-18T16:43:26.926Z,11.80
2023-02-18T16:45:57.685Z,11.70
2023-02-18T16:48:31.871Z,11.70
2023-02-18T16:51:05.766Z,11.60
2023-02-18T16:53:32.917Z,11.60
2023-02-18T16:56:00.968Z,11.60
2023-02-18T16:58:27.879Z,11.50
2023-02-18T17:00:54.996Z,11.50
2023-02-18T17:03:22.281Z,11.50
2023-02-18T17:05:49.121Z,11.50
2023-02-18T17:08:23.468Z,11.40
2023-02-18T17:10:52.468Z,11.50
2023-02-18T17:13:27.170Z,11.40
2023-02-18T17:15:55.601Z,11.40
2023-02-18T17:18:24.037Z,11.30
2023-02-18T17:20:52.744Z,11.30
2023-02-18T17:23:21.824Z,11.30
2023-02-18T17:25:49.761Z,11.30
2023-02-18T17:28:19.223Z,11.20
2023-02-18T17:31:04.584Z,11.20
2023-02-18T17:33:31.501Z,11.20
2023-02-18T17:35:58.585Z,11.10
2023-02-18T17:38:26.685Z,11.10
2023-02-18T17:40:53.458Z,11.10
2023-02-18T17:43:20.269Z,11.10
2023-02-18T17:45:49.798Z,11.00
2023-02-18T17:48:16.621Z,11.00
2023-02-18T17:50:43.348Z,11.00
2023-02-18T17:53:14.389Z,11.00
2023-02-18T17:55:46.514Z,11.00
2023-02-18T17:58:13.975Z,11.00
2023-02-18T18:00:53.668Z,11.00
2023-02-18T18:03:20.954Z,11.00
2023-02-18T18:05:51.995Z,11.00
2023-02-18T18:08:19.428Z,10.90
2023-02-18T18:11:00.850Z,10.90
2023-02-18T18:13:32.311Z,10.90
2023-02-18T18:15:59.775Z,10.90
2023-02-18T18:18:27.464Z,10.90
2023-02-18T18:20:58.455Z,10.90
2023-02-18T18:23:26.721Z,10.90
2023-02-18T18:25:56.115Z,10.90
2023-02-18T18:28:23.489Z,10.90
2023-02-18T18:30:52.383Z,10.90
2023-02-18T18:33:28.549Z,10.80
2023-02-18T18:35:57.589Z,10.80
2023-02-18T18:38:25.884Z,10.80
2023-02-18T18:40:54.362Z,10.80
2023-02-18T18:43:32.782Z,10.80
2023-02-18T18:46:00.630Z,10.80
2023-02-18T18:48:37.273Z,10.80
2023-02-18T18:51:04.834Z,10.70
2023-02-18T18:53:34.147Z,10.80
2023-02-18T18:56:06.230Z,10.70
2023-02-18T18:58:33.075Z,10.70
2023-02-18T19:01:02.845Z,10.80
2023-02-18T19:03:30.736Z,10.80
2023-02-18T19:05:57.961Z,10.80
2023-02-18T19:08:25.384Z,10.80
2023-02-18T19:10:55.479Z,10.80
2023-02-18T19:13:23.968Z,10.80
2023-02-18T19:16:00.108Z,10.80
2023-02-18T19:18:27.929Z,10.80
2023-02-18T19:20:54.690Z,10.90
2023-02-18T19:23:21.454Z,10.70
2023-02-18T19:25:50.655Z,10.80
2023-02-18T19:28:18.924Z,10.80
2023-02-18T19:30:47.447Z,10.80
2023-02-18T19:33:15.084Z,10.80
2023-02-18T19:35:42.911Z,10.80
2023-02-18T19:38:11.954Z,10.80
2023-02-18T19:40:39.620Z,10.80
2023-02-18T19:43:07.113Z,10.80
2023-02-18T19:45:34.785Z,10.80
2023-02-18T19:48:01.885Z,10.80
2023-02-18T19:50:31.284Z,10.70
2023-02-18T19:53:01.849Z,10.80
2023-02-18T19:55:28.658Z,10.80
2023-02-18T19:57:55.430Z,10.80
2023-02-18T20:00:22.724Z,10.80
2023-02-18T20:02:50.401Z,10.80
2023-02-18T20:05:17.770Z,10.80
2023-02-18T20:07:46.818Z,10.80
2023-02-18T20:10:16.072Z,10.80
2023-02-18T20:12:43.269Z,10.80
2023-02-18T20:15:10.233Z,10.80
2023-02-18T20:17:39.405Z,10.80
2023-02-18T20:20:07.230Z,10.80
2023-02-18T20:22:34.524Z,10.80
2023-02-18T20:25:01.303Z,10.80
2023-02-18T20:27:28.295Z,10.80
2023-02-18T20:29:58.047Z,10.80
2023-02-18T20:32:24.902Z,10.80
2023-02-18T20:34:51.653Z,10.80
2023-02-18T20:37:18.404Z,10.70
2023-02-18T20:39:45.180Z,10.70
2023-02-18T20:42:16.710Z,10.70
2023-02-18T20:44:45.082Z,10.70
2023-02-18T20:47:15.289Z,10.70
2023-02-18T20:49:42.078Z,10.70
2023-02-18T20:52:10.209Z,10.80
2023-02-18T20:54:37.112Z,10.70
2023-02-18T20:57:04.364Z,10.70
2023-02-18T20:59:33.246Z,10.70
2023-02-18T21:02:00.350Z,10.70
2023-02-18T21:04:27.606Z,10.70
2023-02-18T21:06:55.391Z,10.70
2023-02-18T21:09:22.226Z,10.60
2023-02-18T21:11:49.330Z,10.60
2023-02-18T21:14:16.348Z,10.60
2023-02-18T21:16:43.301Z,10.60
2023-02-18T21:19:16.771Z,10.60
2023-02-18T21:21:44.488Z,10.60
2023-02-18T21:24:11.413Z,10.60
2023-02-18T21:26:38.818Z,10.60
2023-02-18T21:29:08.103Z,10.60
2023-02-18T21:31:37.869Z,10.60
2023-02-18T21:34:06.879Z,10.60
2023-02-18T21:36:33.811Z,10.60
2023-02-18T21:39:03.659Z,10.50
2023-02-18T21:41:30.817Z,10.50
2023-02-18T21:43:58.164Z,10.50
2023-02-18T21:46:27.456Z,10.50
2023-02-18T21:51:44.705Z,10.60
2023-02-18T21:54:11.626Z,10.50
2023-02-18T21:56:38.382Z,10.50
2023-02-18T21:59:05.123Z,10.50
2023-02-18T22:01:31.950Z,10.50
2023-02-18T22:03:58.638Z,10.50
2023-02-18T22:06:25.442Z,10.40
2023-02-18T22:08:52.183Z,10.40
2023-02-18T22:11:19.038Z,10.50
2023-02-18T22:13:46.040Z,10.40
2023-02-18T22:16:12.952Z,10.40
2023-02-18T22:18:39.722Z,10.40
2023-02-18T22:21:08.763Z,10.40
2023-02-18T22:23:36.254Z,10.40
2023-02-18T22:26:05.310Z,10.40
2023-02-18T22:28:33.092Z,10.40
2023-02-18T22:31:00.772Z,10.40
2023-02-18T22:33:27.684Z,10.40
2023-02-18T22:35:54.413Z,10.40
2023-02-18T22:38:21.179Z,10.40
2023-02-18T22:40:50.710Z,10.40
2023-02-18T22:43:18.032Z,10.40
2023-02-18T22:45:44.820Z,10.30
2023-02-18T22:48:11.626Z,10.30
2023-02-18T22:50:38.379Z,10.30
2023-02-18T22:53:05.121Z,10.30
2023-02-18T22:55:31.833Z,10.30
2023-02-18T22:57:58.588Z,10.30
2023-02-18T23:00:26.034Z,10.20
2023-02-18T23:02:53.496Z,10.20
2023-02-18T23:05:20.314Z,10.20
2023-02-18T23:07:47.056Z,10.10
2023-02-18T23:10:13.789Z,10.10
2023-02-18T23:26:46.293Z,10.00
2023-02-18T23:29:13.144Z,10.00
2023-02-18T23:31:40.306Z,10.00
2023-02-18T23:34:08.506Z,9.90
2023-02-18T23:36:36.948Z,9.90
2023-02-18T23:39:08.275Z,9.90
2023-02-18T23:41:42.283Z,9.90
2023-02-18T23:44:12.206Z,9.80
2023-02-18T23:46:39.528Z,9.80
2023-02-18T23:49:06.381Z,9.80
2023-02-18T23:51:33.333Z,9.80
2023-02-18T23:54:03.433Z,9.80
2023-02-18T23:56:30.993Z,9.80
2023-02-18T23:59:01.537Z,9.80
